Time;durP1;ratioP1;P1;durP2;ratioP2;P2;SDS_P1;SDS_P2;PMS_P1;PMS_P2;Temp;Humidity;BMP_temperature;BMP_pressure;BME280_temperature;BME280_humidity;BME280_pressure;Samples;Min_cycle;Max_cycle;Signal;HPM_P1;HPM_P2
2022/03/19 00:00:58;;;;;;;19.20;10.38;;;;;;;-143.84;61.83;45210.94;5052441;28;20284;-69
2022/03/19 00:03:25;;;;;;;11.10;8.20;;;;;;;-143.84;61.56;45193.78;5052154;28;20821;-69
2022/03/19 00:05:52;;;;;;;13.88;9.93;;;;;;;-143.84;61.58;45195.69;5052205;28;20200;-69
2022/03/19 00:08:20;;;;;;;11.65;8.77;;;;;;;-143.84;61.55;45197.59;5052063;28;20249;-69
2022/03/19 00:10:49;;;;;;;12.25;9.23;;;;;;;-143.84;61.20;45203.31;5052201;28;20238;-69
2022/03/19 00:13:17;;;;;;;15.52;9.98;;;;;;;-143.84;61.27;45222.34;5052223;28;20203;-69
2022/03/19 00:15:45;;;;;;;13.90;9.43;;;;;;;-143.84;61.45;45193.78;5051995;28;20723;-69
2022/03/19 00:18:12;;;;;;;15.15;9.65;;;;;;;-143.84;62.05;45207.13;5051896;28;20199;-69
2022/03/19 00:20:39;;;;;;;17.63;9.65;;;;;;;-143.84;61.95;45193.78;5051983;28;20735;-69
2022/03/19 00:23:06;;;;;;;12.98;9.13;;;;;;;-143.84;62.17;45209.03;5052123;28;20207;-69
2022/03/19 00:25:34;;;;;;;13.25;9.40;;;;;;;-143.84;62.77;45201.41;5051223;28;20203;-69
2022/03/19 00:28:02;;;;;;;10.43;8.10;;;;;;;-143.84;62.66;45199.50;5051791;28;20265;-69
2022/03/19 00:30:29;;;;;;;12.20;8.52;;;;;;;-143.84;62.97;45224.25;5051683;28;20196;-69
2022/03/19 00:32:57;;;;;;;15.23;9.77;;;;;;;-143.84;62.78;45188.06;5051476;28;20261;-69
2022/03/19 00:35:24;;;;;;;15.27;9.60;;;;;;;-143.84;63.02;45189.97;5051650;28;20305;-69
2022/03/19 00:37:53;;;;;;;14.48;10.43;;;;;;;-143.84;63.02;45222.34;5051539;28;20207;-69
2022/03/19 00:40:22;;;;;;;13.55;8.52;;;;;;;-143.84;62.70;45220.44;5051413;28;20195;-69
2022/03/19 00:42:49;;;;;;;13.45;9.10;;;;;;;-143.84;62.85;45201.41;5051280;28;20203;-69
2022/03/19 00:45:18;;;;;;;20.80;9.63;;;;;;;-143.84;62.69;45218.53;5051641;28;20736;-69
2022/03/19 00:47:45;;;;;;;9.57;7.72;;;;;;;-143.84;63.17;45205.22;5050948;28;20285;-69
2022/03/19 00:50:13;;;;;;;14.45;9.60;;;;;;;-143.84;62.86;45216.63;5051646;28;20588;-69
2022/03/19 00:52:40;;;;;;;13.23;9.05;;;;;;;-143.84;62.99;45212.84;5050993;28;20211;-69
2022/03/19 00:55:09;;;;;;;12.65;9.80;;;;;;;-143.84;63.65;45201.41;5051364;28;20234;-69
2022/03/19 00:57:41;;;;;;;12.43;9.30;;;;;;;-143.84;63.55;45186.16;5051147;28;20191;-69
2022/03/19 01:00:11;;;;;;;17.02;9.80;;;;;;;-143.84;63.37;45231.88;5051047;28;20696;-69
2022/03/19 01:02:40;;;;;;;11.38;8.73;;;;;;;-143.84;62.74;45228.06;5050929;28;20203;-69
2022/03/19 01:05:09;;;;;;;14.30;9.30;;;;;;;-143.84;62.84;45220.44;5051110;28;20207;-69
2022/03/19 01:07:42;;;;;;;12.73;8.77;;;;;;;-143.84;62.37;45231.88;5050876;28;20261;-69
2022/03/19 01:10:11;;;;;;;12.93;8.13;;;;;;;-143.84;62.42;45245.19;5050913;28;20675;-69
2022/03/19 01:12:38;;;;;;;10.80;7.85;;;;;;;-143.84;62.05;45201.41;5030835;28;20266;-69
2022/03/19 01:15:06;;;;;;;12.40;9.07;;;;;;;-143.84;61.90;45197.59;5030831;28;20224;-69
2022/03/19 01:17:33;;;;;;;14.02;9.10;;;;;;;-143.84;62.09;45193.78;5030827;28;20212;-69
2022/03/19 01:20:02;;;;;;;15.27;10.35;;;;;;;-143.84;61.90;45205.22;5030640;28;20200;-69
2022/03/19 01:22:31;;;;;;;12.40;8.85;;;;;;;-143.84;61.81;45195.69;5030766;28;20214;-69
2022/03/19 01:24:59;;;;;;;12.45;8.70;;;;;;;-143.84;60.95;45228.06;5031333;28;20202;-69
2022/03/19 01:27:26;;;;;;;18.27;9.50;;;;;;;-143.84;61.21;45224.25;5030676;28;20200;-69
2022/03/19 01:29:53;;;;;;;12.38;8.80;;;;;;;-143.84;60.62;45228.06;5030827;28;20282;-69
2022/03/19 01:32:20;;;;;;;17.30;9.13;;;;;;;-143.84;60.38;45197.59;5030555;28;20266;-69
2022/03/19 01:34:47;;;;;;;9.95;7.50;;;;;;;-143.84;60.35;45218.53;5030322;28;20203;-69
2022/03/19 01:37:16;;;;;;;11.73;7.30;;;;;;;-143.84;59.83;45189.97;5029786;28;20717;-69
2022/03/19 01:39:43;;;;;;;10.68;7.57;;;;;;;-143.84;59.67;45207.13;5030070;28;20254;-69
2022/03/19 01:42:10;;;;;;;10.75;7.68;;;;;;;-143.84;59.67;45214.72;5030424;28;20259;-69
2022/03/19 01:44:37;;;;;;;16.63;9.20;;;;;;;-143.84;59.40;45226.16;5030527;28;20626;-69
2022/03/19 01:47:10;;;;;;;17.00;8.73;;;;;;;-143.84;59.24;45229.97;5030479;28;20272;-69
2022/03/19 01:49:38;;;;;;;13.52;8.45;;;;;;;-143.84;59.04;45197.59;5030090;28;20327;-69
2022/03/19 01:52:06;;;;;;;16.70;8.73;;;;;;;-143.84;58.73;45228.06;5030383;28;20677;-69
2022/03/19 01:54:38;;;;;;;10.77;8.20;;;;;;;-143.84;58.64;45218.53;5030436;28;20621;-69
2022/03/19 01:57:07;;;;;;;10.27;7.50;;;;;;;-143.84;58.27;45180.47;5030105;28;20231;-69
2022/03/19 01:59:37;;;;;;;10.38;8.27;;;;;;;-143.84;58.22;45222.34;5029928;28;20200;-69
2022/03/19 02:02:06;;;;;;;11.13;7.85;;;;;;;-143.84;58.96;45209.03;5030142;28;20219;-69
2022/03/19 02:04:35;;;;;;;16.55;9.30;;;;;;;-143.84;58.53;45167.13;5030002;28;20204;-69
2022/03/19 02:07:03;;;;;;;13.35;8.05;;;;;;;-143.84;58.40;45210.94;5030112;28;20557;-69
2022/03/19 02:09:31;;;;;;;13.85;8.07;;;;;;;-143.84;58.21;45203.31;5030054;28;20200;-69
2022/03/19 02:12:00;;;;;;;10.43;7.90;;;;;;;-143.84;58.22;45229.97;5034566;28;20601;-69
2022/03/19 02:14:28;;;;;;;10.05;8.05;;;;;;;-143.84;58.49;45201.41;5050074;28;20207;-69
2022/03/19 02:16:55;;;;;;;15.07;8.02;;;;;;;-143.84;58.20;45226.16;5049544;28;20242;-69
2022/03/19 02:19:23;;;;;;;12.73;7.63;;;;;;;-143.84;58.29;45258.53;5049537;28;20261;-69
2022/03/19 02:21:51;;;;;;;12.38;8.27;;;;;;;-143.84;58.47;45184.25;5049743;28;20203;-69
2022/03/19 02:27:05;;;;;;;12.63;8.70;;;;;;;-143.84;58.63;45216.63;5049711;28;20341;-69
2022/03/19 02:29:32;;;;;;;11.32;7.95;;;;;;;-143.84;58.88;45209.03;5049351;28;20733;-69
2022/03/19 02:32:01;;;;;;;11.68;7.00;;;;;;;-143.84;58.71;45239.50;5049388;28;20265;-69
2022/03/19 02:34:28;;;;;;;10.32;8.07;;;;;;;-143.84;58.62;45226.16;5049203;28;20203;-70
2022/03/19 02:36:56;;;;;;;10.88;7.53;;;;;;;-143.84;58.37;45235.69;5049352;28;20227;-69
2022/03/19 02:39:28;;;;;;;9.90;7.65;;;;;;;-143.84;58.59;45226.16;5049525;28;20204;-69
2022/03/19 02:41:56;;;;;;;11.10;7.95;;;;;;;-143.84;58.49;45203.31;5049337;28;20242;-69
2022/03/19 02:44:24;;;;;;;8.73;7.30;;;;;;;-143.84;58.15;45199.50;5049807;28;20997;-69
2022/03/19 02:46:53;;;;;;;11.45;7.05;;;;;;;-143.84;58.02;45191.88;5049427;28;20754;-69
2022/03/19 02:49:22;;;;;;;11.70;7.32;;;;;;;-143.84;58.00;45241.41;5049245;28;20601;-69
2022/03/19 02:51:51;;;;;;;11.25;8.15;;;;;;;-143.84;58.39;45201.41;5049283;28;20665;-69
2022/03/19 02:54:20;;;;;;;11.35;8.20;;;;;;;-143.84;58.16;45180.47;5049156;28;20203;-69
2022/03/19 02:56:49;;;;;;;16.05;8.40;;;;;;;-143.84;57.78;45195.69;5048715;28;20284;-69
2022/03/19 02:59:19;;;;;;;11.07;7.88;;;;;;;-143.84;57.94;45189.97;5049131;28;20619;-70
2022/03/19 03:01:47;;;;;;;12.63;7.05;;;;;;;-143.84;57.88;45220.44;5049523;28;20265;-69
2022/03/19 03:04:15;;;;;;;8.63;7.15;;;;;;;-143.84;58.25;45218.53;5049046;28;20199;-69
2022/03/19 03:06:44;;;;;;;9.63;7.50;;;;;;;-143.84;57.75;45199.50;5048736;28;20206;-69
2022/03/19 03:09:12;;;;;;;11.30;6.85;;;;;;;-143.84;58.13;45214.72;5049027;28;20206;-69
2022/03/19 03:11:40;;;;;;;7.85;6.75;;;;;;;-143.84;58.21;45220.44;5049091;28;20246;-70
2022/03/19 03:14:10;;;;;;;9.18;7.63;;;;;;;-143.84;58.33;45222.34;5048867;28;20228;-69
2022/03/19 03:16:39;;;;;;;11.65;8.90;;;;;;;-143.84;58.43;45212.84;5048672;28;20285;-69
2022/03/19 03:19:08;;;;;;;12.23;8.23;;;;;;;-143.84;58.35;45205.22;5048967;28;20203;-69
2022/03/19 03:21:36;;;;;;;12.25;7.85;;;;;;;-143.84;58.58;45207.13;5047677;28;20199;-69
2022/03/19 03:24:04;;;;;;;15.85;8.15;;;;;;;-143.84;58.42;45203.31;5047313;28;20290;-69
2022/03/19 03:26:32;;;;;;;10.15;7.47;;;;;;;-143.84;58.39;45226.16;5047957;28;20218;-69
2022/03/19 03:28:59;;;;;;;11.02;8.10;;;;;;;-143.84;58.70;45247.09;5048723;28;20203;-69
2022/03/19 03:31:28;;;;;;;9.60;6.97;;;;;;;-143.84;58.91;45229.97;5048767;28;20230;-69
2022/03/19 03:33:56;;;;;;;10.10;7.85;;;;;;;-143.84;58.56;45247.09;5048496;28;20207;-69
2022/03/19 03:36:23;;;;;;;9.27;7.43;;;;;;;-143.84;58.84;45218.53;5048847;28;20262;-69
2022/03/19 03:38:50;;;;;;;15.13;8.43;;;;;;;-143.84;59.18;45239.50;5049070;28;20207;-69
2022/03/19 03:41:18;;;;;;;10.65;7.60;;;;;;;-143.84;59.27;45214.72;5048785;28;20654;-69
2022/03/19 03:43:45;;;;;;;9.50;7.80;;;;;;;-143.84;59.28;45199.50;5048833;28;20211;-69
2022/03/19 03:46:13;;;;;;;11.38;8.20;;;;;;;-143.84;59.66;45224.25;5048738;28;20249;-69
2022/03/19 03:48:41;;;;;;;14.55;8.23;;;;;;;-143.84;59.73;45216.63;5048892;28;20429;-69
2022/03/19 03:51:13;;;;;;;22.20;8.48;;;;;;;-143.84;59.81;45212.84;5048671;28;20199;-70
2022/03/19 03:53:40;;;;;;;12.93;8.15;;;;;;;-143.84;60.32;45205.22;5048665;28;20203;-69
2022/03/19 03:56:09;;;;;;;14.82;7.95;;;;;;;-143.84;60.68;45220.44;5048584;28;20219;-69
2022/03/19 03:58:37;;;;;;;10.05;6.78;;;;;;;-143.84;61.08;45201.41;5048935;28;20203;-69
2022/03/19 04:01:04;;;;;;;13.35;7.93;;;;;;;-143.84;61.09;45201.41;5052134;28;20203;-68
2022/03/19 04:03:31;;;;;;;11.68;8.10;;;;;;;-143.84;61.33;45205.22;5051981;28;20713;-69
2022/03/19 04:06:00;;;;;;;10.48;7.53;;;;;;;-143.84;61.10;45193.78;5051996;28;20210;-69
2022/03/19 04:08:27;;;;;;;10.02;7.50;;;;;;;-143.84;61.32;45220.44;5052201;28;20272;-68
2022/03/19 04:10:54;;;;;;;14.98;8.35;;;;;;;-143.84;61.42;45186.16;5052166;28;20195;-69
2022/03/19 04:13:21;;;;;;;12.05;7.03;;;;;;;-143.84;61.81;45209.03;5052028;28;20250;-68
2022/03/19 04:15:50;;;;;;;11.70;7.95;;;;;;;-143.84;61.93;45207.13;5051567;28;20218;-68
2022/03/19 04:18:17;;;;;;;14.25;8.52;;;;;;;-143.84;61.86;45216.63;5051940;28;20210;-68
2022/03/19 04:20:44;;;;;;;9.50;7.07;;;;;;;-143.84;62.41;45209.03;5051823;28;20633;-68
2022/03/19 04:23:12;;;;;;;14.77;8.23;;;;;;;-143.84;62.34;45207.13;5051887;28;20261;-68
2022/03/19 04:25:40;;;;;;;16.27;7.32;;;;;;;-143.84;62.56;45218.53;5051991;28;20199;-68
2022/03/19 04:28:11;;;;;;;10.20;7.65;;;;;;;-143.84;62.97;45224.25;5051776;28;20195;-69
2022/03/19 04:30:40;;;;;;;13.35;7.28;;;;;;;-143.84;62.51;45252.81;5051758;28;20207;-69
2022/03/19 04:33:07;;;;;;;11.90;8.27;;;;;;;-143.84;62.36;45201.41;5051334;28;20213;-68
2022/03/19 04:38:22;;;;;;;15.32;8.05;;;;;;;-143.84;62.17;45207.13;5051862;28;20206;-68
2022/03/19 04:40:52;;;;;;;11.30;7.80;;;;;;;-143.84;62.20;45224.25;5051405;28;20612;-68
2022/03/19 04:43:20;;;;;;;14.30;8.65;;;;;;;-143.84;62.09;45188.06;5051448;28;20211;-68
2022/03/19 04:45:47;;;;;;;16.23;8.05;;;;;;;-143.84;61.81;45216.63;5051592;28;20203;-70
2022/03/19 04:48:14;;;;;;;9.35;7.57;;;;;;;-143.84;61.71;45214.72;5051714;28;20651;-70
2022/03/19 04:50:43;;;;;;;12.98;8.68;;;;;;;-143.84;61.43;45231.88;5050031;28;20203;-70
2022/03/19 04:53:11;;;;;;;11.07;7.68;;;;;;;-143.84;61.55;45203.31;5031849;28;20192;-69
2022/03/19 04:55:41;;;;;;;11.73;7.00;;;;;;;-143.84;61.44;45229.97;5031684;28;21097;-69
2022/03/19 04:58:09;;;;;;;10.80;7.70;;;;;;;-143.84;61.59;45174.75;5031575;28;20238;-68
2022/03/19 05:00:37;;;;;;;13.68;7.93;;;;;;;-143.84;61.35;45212.84;5031752;28;20625;-69
2022/03/19 05:03:07;;;;;;;16.15;8.48;;;;;;;-143.84;61.52;45220.44;5031235;28;20204;-69
2022/03/19 05:05:34;;;;;;;16.65;8.30;;;;;;;-143.84;61.10;45195.69;5031146;28;20188;-70
2022/03/19 05:08:03;;;;;;;9.30;7.22;;;;;;;-143.84;61.21;45209.03;5030968;28;20192;-69
2022/03/19 05:13:18;;;;;;;8.90;5.72;;;;;;;-143.84;56.99;45184.25;5031119;28;20198;-69
2022/03/19 05:15:45;;;;;;;11.85;7.93;;;;;;;-143.84;54.64;45218.53;5030847;28;20693;-69
2022/03/19 05:18:13;;;;;;;9.38;6.47;;;;;;;-143.84;53.69;45203.31;5030789;28;20286;-69
2022/03/19 05:20:40;;;;;;;11.05;7.70;;;;;;;-143.84;51.97;45169.03;5030178;28;20210;-70
2022/03/19 05:23:08;;;;;;;13.88;7.47;;;;;;;-143.84;51.27;45186.16;5031049;28;20700;-70
2022/03/19 05:25:35;;;;;;;9.67;7.77;;;;;;;-143.84;49.23;45189.97;5030573;28;20266;-70
2022/03/19 05:28:02;;;;;;;10.40;7.83;;;;;;;-143.84;48.06;45195.69;5030976;28;20447;-69
2022/03/19 05:30:31;;;;;;;7.83;6.57;;;;;;;-143.84;47.81;45201.41;5030624;28;20505;-69
2022/03/19 05:32:59;;;;;;;7.00;5.90;;;;;;;-143.84;46.98;45174.75;5030924;28;20446;-69
2022/03/19 05:35:27;;;;;;;10.10;8.00;;;;;;;-143.84;46.50;45174.75;5030530;28;20444;-70
2022/03/19 05:37:54;;;;;;;12.50;7.30;;;;;;;-143.84;46.08;45193.78;5030447;28;20586;-69
2022/03/19 05:40:21;;;;;;;11.80;7.97;;;;;;;-143.84;45.64;45188.06;5031015;28;20431;-70
2022/03/19 05:42:50;;;;;;;13.27;8.20;;;;;;;-143.84;44.46;45163.31;5030482;28;20442;-69
2022/03/19 05:45:19;;;;;;;11.30;7.40;;;;;;;-143.84;44.36;45180.47;5030348;28;20445;-70
2022/03/19 05:47:48;;;;;;;8.50;6.93;;;;;;;-143.84;43.79;45148.09;5026901;28;20482;-70
2022/03/19 05:50:16;;;;;;;8.17;5.43;;;;;;;-143.84;43.62;45146.19;5009793;28;20447;-69
2022/03/19 05:52:45;;;;;;;13.10;7.70;;;;;;;-143.84;43.62;45159.50;5010336;28;21141;-70
2022/03/19 05:55:12;;;;;;;7.63;6.63;;;;;;;-143.84;43.12;45174.75;5010593;28;20450;-70
2022/03/19 05:57:40;;;;;;;10.47;6.90;;;;;;;-143.84;42.77;45163.31;5010225;28;20622;-70
2022/03/19 06:00:11;;;;;;;15.23;7.43;;;;;;;-143.84;42.79;45174.75;5010423;28;20789;-69
2022/03/19 06:02:42;;;;;;;11.97;7.60;;;;;;;-143.84;42.39;45134.75;5010865;28;20867;-70
2022/03/19 06:05:12;;;;;;;11.20;7.40;;;;;;;-143.84;42.11;45172.84;5009679;28;20444;-69
2022/03/19 06:07:39;;;;;;;10.93;7.37;;;;;;;-143.84;42.45;45214.72;5010737;28;20446;-70
2022/03/19 06:10:08;;;;;;;7.50;6.13;;;;;;;-143.84;43.45;45170.94;5010666;28;20502;-71
2022/03/19 06:12:35;;;;;;;7.53;6.37;;;;;;;-143.84;42.60;45167.13;5011248;28;20541;-71
2022/03/19 06:15:03;;;;;;;10.07;7.47;;;;;;;-143.84;42.17;45146.19;5010113;28;20442;-71
2022/03/19 06:17:31;;;;;;;11.00;7.27;;;;;;;-143.84;41.79;45150.00;5010104;28;20499;-70
2022/03/19 06:19:58;;;;;;;11.87;7.60;;;;;;;-143.84;41.39;45151.91;5012221;28;20440;-70
2022/03/19 06:22:26;;;;;;;9.90;7.33;;;;;;;-143.84;41.72;45146.19;5018835;28;20441;-70
2022/03/19 06:24:53;;;;;;;9.00;6.20;;;;;;;-143.84;40.63;45178.56;5021383;28;20489;-70
2022/03/19 06:27:20;;;;;;;15.33;7.00;;;;;;;-143.84;40.88;45140.47;5029756;28;20450;-71
2022/03/19 06:29:48;;;;;;;8.80;6.30;;;;;;;-143.84;40.47;45170.94;5026159;28;20451;-71
2022/03/19 06:32:20;;;;;;;10.80;7.23;;;;;;;-143.84;40.47;45151.91;5021441;28;20441;-71
2022/03/19 06:34:48;;;;;;;8.10;6.70;;;;;;;-143.84;40.32;45138.56;5020434;28;20814;-71
2022/03/19 06:37:19;;;;;;;8.40;6.40;;;;;;;-143.84;39.62;45159.50;5023452;28;20478;-71
2022/03/19 06:39:49;;;;;;;9.77;6.43;;;;;;;-143.84;38.96;45136.66;5023770;28;20436;-71
2022/03/19 06:42:17;;;;;;;9.03;6.50;;;;;;;-143.84;39.57;45130.94;5029951;28;20447;-71
2022/03/19 06:44:44;;;;;;;7.77;5.97;;;;;;;-143.84;39.40;45163.31;5029802;28;20497;-70
2022/03/19 06:47:11;;;;;;;7.83;6.03;;;;;;;-143.84;38.49;45132.84;5021027;28;20436;-70
2022/03/19 06:49:38;;;;;;;9.80;5.53;;;;;;;-143.84;39.32;45125.22;5028234;28;20462;-70
2022/03/19 06:52:06;;;;;;;11.17;6.20;;;;;;;-143.84;38.17;45150.00;5039732;28;20444;-70
2022/03/19 06:54:34;;;;;;;9.50;5.90;;;;;;;-143.84;38.21;45142.38;5050243;28;20454;-71
2022/03/19 06:57:02;;;;;;;6.97;5.97;;;;;;;-143.84;38.61;45148.09;5049781;28;21085;-70
2022/03/19 06:59:31;;;;;;;7.53;6.00;;;;;;;-143.84;37.93;45155.69;5049804;28;20441;-72
2022/03/19 07:01:58;;;;;;;7.37;6.30;;;;;;;-143.84;37.68;45180.47;5049434;28;20434;-70
2022/03/19 07:04:25;;;;;;;5.53;5.03;;;;;;;-143.84;37.50;45161.41;5049309;28;20488;-70
2022/03/19 07:06:52;;;;;;;6.67;5.73;;;;;;;-143.84;37.57;45167.13;5049473;28;20450;-71
2022/03/19 07:09:19;;;;;;;15.20;5.80;;;;;;;-143.84;37.24;45110.00;5046941;28;20454;-70
2022/03/19 07:11:46;;;;;;;6.73;5.40;;;;;;;-143.84;37.10;45165.22;5053189;28;20445;-71
2022/03/19 07:14:16;;;;;;;7.97;6.40;;;;;;;-143.84;37.13;45140.47;5055303;28;20444;-73
2022/03/19 07:16:44;;;;;;;5.97;5.17;;;;;;;-143.84;37.04;45148.09;5051567;28;20453;-75
2022/03/19 07:19:12;;;;;;;10.23;5.67;;;;;;;-143.84;36.90;45157.59;5052817;28;20460;-73
2022/03/19 07:21:39;;;;;;;12.23;6.37;;;;;;;-143.84;37.40;45119.53;5050055;28;20544;-73
2022/03/19 07:24:07;;;;;;;6.93;5.70;;;;;;;-143.84;36.58;45151.91;5055599;28;21001;-72
2022/03/19 07:26:34;;;;;;;5.97;5.37;;;;;;;-143.84;36.90;45151.91;5046053;28;20445;-73
2022/03/19 07:29:02;;;;;;;11.73;5.80;;;;;;;-143.84;36.34;45170.94;5048311;28;20450;-73
2022/03/19 07:31:30;;;;;;;7.60;5.57;;;;;;;-143.84;36.47;45123.34;5048098;28;20429;-73
2022/03/19 07:33:58;;;;;;;5.50;4.93;;;;;;;-143.84;36.50;45111.91;5048793;28;20453;-75
2022/03/19 07:36:25;;;;;;;6.10;5.50;;;;;;;-143.84;36.03;45129.03;5056376;28;20468;-73
2022/03/19 07:38:52;;;;;;;8.50;5.90;;;;;;;-143.84;36.47;45127.13;5056778;28;21024;-73
2022/03/19 07:44:05;;;;;;;8.30;6.20;;;;;;;-143.84;35.86;45117.63;5050379;28;20537;-73
2022/03/19 07:46:35;;;;;;;8.53;5.33;;;;;;;-143.84;36.16;45146.19;5056840;28;20437;-73
2022/03/19 07:49:02;;;;;;;6.97;5.30;;;;;;;-143.84;35.48;45140.47;5052436;28;21562;-74
2022/03/19 07:51:30;;;;;;;13.90;6.27;;;;;;;-143.84;35.56;45136.66;5060132;28;21689;-76
2022/03/19 07:53:57;;;;;;;9.10;5.93;;;;;;;-143.84;35.39;45129.03;5059750;28;20448;-75
2022/03/19 07:56:26;;;;;;;10.37;6.07;;;;;;;-143.84;35.30;45170.94;5060557;28;20942;-75
2022/03/19 07:58:54;;;;;;;8.17;5.77;;;;;;;-143.84;35.32;45132.84;5056541;28;20520;-76
2022/03/19 08:01:21;;;;;;;9.50;6.03;;;;;;;-143.84;35.56;45127.13;5059355;28;20515;-73
2022/03/19 08:03:50;;;;;;;8.63;6.43;;;;;;;-143.84;35.02;45134.75;5054255;28;20507;-74
2022/03/19 08:06:18;;;;;;;7.27;6.53;;;;;;;-143.84;34.85;45113.81;5053452;28;20906;-74
2022/03/19 08:08:45;;;;;;;8.40;5.93;;;;;;;-143.84;34.39;45110.00;5055475;28;20518;-73
2022/03/19 08:11:14;;;;;;;5.67;5.17;;;;;;;-143.84;33.77;45123.34;5055392;28;20813;-76
2022/03/19 08:13:41;;;;;;;10.13;5.47;;;;;;;-143.84;33.28;45132.84;5048166;28;21039;-77
2022/03/19 08:16:10;;;;;;;8.03;5.87;;;;;;;-143.84;33.85;45113.81;5053376;28;20969;-75
2022/03/19 08:18:38;;;;;;;8.10;6.23;;;;;;;-143.84;33.97;45134.75;5048662;28;20898;-76
2022/03/19 08:21:06;;;;;;;6.17;5.60;;;;;;;-143.84;33.63;45119.53;5045610;28;21170;-75
2022/03/19 08:23:35;;;;;;;8.40;5.93;;;;;;;-143.84;33.51;45121.44;5053220;28;20454;-76
2022/03/19 08:26:02;;;;;;;6.63;5.90;;;;;;;-143.84;33.14;45136.66;5046222;28;20467;-71
2022/03/19 08:28:29;;;;;;;11.50;6.27;;;;;;;-143.84;33.54;45134.75;5054551;28;20452;-71
2022/03/19 08:30:58;;;;;;;6.90;5.60;;;;;;;-143.84;33.20;45102.38;5055324;28;20449;-75
2022/03/19 08:33:25;;;;;;;13.03;6.17;;;;;;;-143.84;33.22;45113.81;5050107;28;20529;-75
2022/03/19 08:35:52;;;;;;;7.40;5.90;;;;;;;-143.84;32.93;45123.34;5045287;28;20446;-75
2022/03/19 08:41:05;;;;;;;6.40;5.57;;;;;;;-143.84;33.58;45115.72;5041608;28;20810;-75
2022/03/19 08:43:32;;;;;;;10.63;6.47;;;;;;;-143.84;33.22;45138.56;5039613;28;20464;-72
2022/03/19 08:46:00;;;;;;;5.70;5.20;;;;;;;-143.84;33.37;45140.47;5039107;28;20457;-75
2022/03/19 08:48:27;;;;;;;9.70;6.70;;;;;;;-143.84;33.11;45136.66;5035870;28;20898;-75
2022/03/19 08:51:39;;;;;;;6.37;5.00;;;;;;;-143.84;33.12;45132.84;5041345;28;20859;-75
2022/03/19 08:53:42;;;;;;;8.93;6.43;;;;;;;-143.84;33.32;45108.09;5040545;28;20450;-74
2022/03/19 08:56:09;;;;;;;7.20;5.77;;;;;;;-143.84;33.82;45127.13;5050043;28;20457;-71
2022/03/19 08:58:37;;;;;;;11.23;5.60;;;;;;;-143.84;33.00;45108.09;5060648;28;21040;-74
2022/03/19 09:01:04;;;;;;;8.10;5.83;;;;;;;-143.84;33.47;45121.44;5047735;28;20918;-73
2022/03/19 09:03:32;;;;;;;6.50;5.17;;;;;;;-143.84;33.20;45127.13;5049843;28;21494;-76
2022/03/19 09:06:00;;;;;;;5.87;5.37;;;;;;;-143.84;32.49;45127.13;5056693;28;20638;-75
2022/03/19 09:08:27;;;;;;;13.03;5.63;;;;;;;-143.84;32.09;45148.09;5052630;28;20453;-76
2022/03/19 09:10:57;;;;;;;9.87;6.50;;;;;;;-143.84;32.78;45113.81;5045579;28;20981;-70
2022/03/19 09:13:24;;;;;;;6.73;5.80;;;;;;;-143.84;33.20;45119.53;5041677;28;20538;-73
2022/03/19 09:15:52;;;;;;;9.03;6.27;;;;;;;-143.84;33.28;45111.91;5043274;28;20446;-74
2022/03/19 09:18:20;;;;;;;7.73;6.00;;;;;;;-143.84;33.25;45125.22;5052186;28;20492;-74
2022/03/19 09:20:47;;;;;;;7.30;6.10;;;;;;;-143.84;32.30;45110.00;5052132;28;20503;-76
2022/03/19 09:23:14;;;;;;;8.20;6.00;;;;;;;-143.84;32.32;45094.78;5051429;28;20467;-73
2022/03/19 09:25:42;;;;;;;6.90;5.80;;;;;;;-143.84;32.19;45104.28;5050975;28;20462;-73
2022/03/19 09:28:11;;;;;;;5.57;5.00;;;;;;;-143.84;32.29;45100.47;5049932;28;20450;-73
2022/03/19 09:30:38;;;;;;;10.60;6.60;;;;;;;-143.84;32.52;45094.78;5048596;28;20562;-73
2022/03/19 09:33:06;;;;;;;7.93;7.10;;;;;;;-143.84;33.14;45104.28;5050268;28;20454;-73
2022/03/19 09:35:34;;;;;;;8.30;5.40;;;;;;;-143.84;31.86;45111.91;5051397;28;20450;-72
2022/03/19 09:38:01;;;;;;;6.83;6.13;;;;;;;-143.84;31.49;45092.88;5046206;28;20486;-71
2022/03/19 09:40:28;;;;;;;10.83;6.10;;;;;;;-143.84;31.89;45113.81;5048199;28;20450;-73
2022/03/19 09:42:57;;;;;;;6.87;6.23;;;;;;;-143.84;31.80;45100.47;5050090;28;20556;-71
2022/03/19 09:45:28;;;;;;;15.23;7.23;;;;;;;-143.84;32.09;45092.88;5047223;28;20457;-73
2022/03/19 09:47:56;;;;;;;8.07;6.63;;;;;;;-143.84;32.25;45113.81;5050893;28;20592;-73
2022/03/19 09:50:25;;;;;;;14.33;6.17;;;;;;;-143.84;32.85;45104.28;5048270;28;20472;-73
2022/03/19 09:52:54;;;;;;;6.73;5.47;;;;;;;-143.84;33.29;45113.81;5045691;28;20442;-74
2022/03/19 09:55:26;;;;;;;7.77;5.40;;;;;;;-143.84;33.01;45121.44;5050210;28;20808;-74
2022/03/19 09:57:54;;;;;;;9.03;6.13;;;;;;;-143.84;33.69;45090.97;5048779;28;20890;-74
2022/03/19 10:00:22;;;;;;;5.77;5.17;;;;;;;-143.84;32.92;45119.53;5043564;28;20445;-74
2022/03/19 10:02:59;;;;;;;6.00;5.23;;;;;;;-143.84;32.83;45125.22;5047803;28;21026;-74
2022/03/19 10:11:00;;;;;;;8.73;5.90;;;;;;;-143.84;33.01;45104.28;5048130;28;20443;-73
2022/03/19 10:13:27;;;;;;;10.03;5.37;;;;;;;-143.84;32.66;45117.63;5048075;28;20449;-73
2022/03/19 10:15:55;;;;;;;8.70;5.30;;;;;;;-143.84;33.50;45138.56;5050146;28;20466;-73
2022/03/19 10:18:29;;;;;;;9.90;5.67;;;;;;;-143.84;33.23;45113.81;5044409;28;20478;-74
2022/03/19 10:20:56;;;;;;;6.80;5.63;;;;;;;-143.84;34.16;45127.13;5051309;28;20445;-73
2022/03/19 10:23:35;;;;;;;5.60;5.10;;;;;;;-143.84;33.40;45142.38;5035932;28;20979;-72
2022/03/19 10:26:02;;;;;;;5.80;5.10;;;;;;;-143.84;34.20;45142.38;5043497;28;20453;-73
2022/03/19 10:28:31;;;;;;;9.27;5.40;;;;;;;-143.84;34.02;45110.00;5054276;28;20452;-73
2022/03/19 10:30:58;;;;;;;7.77;5.60;;;;;;;-143.84;32.97;45111.91;5034120;28;21041;-74
2022/03/19 10:33:30;;;;;;;8.30;5.13;;;;;;;-143.84;33.94;45125.22;5047988;28;20446;-74
2022/03/19 10:36:08;;;;;;;12.87;6.07;;;;;;;-143.84;33.82;45117.63;5037001;28;20465;-74
2022/03/19 10:38:43;;;;;;;13.60;6.13;;;;;;;-143.84;33.11;45138.56;5030351;28;20488;-74
2022/03/19 10:41:12;;;;;;;8.93;5.50;;;;;;;-143.84;33.10;45125.22;5030203;28;21321;-74
2022/03/19 10:43:44;;;;;;;7.07;5.53;;;;;;;-143.84;33.27;45092.88;5030187;28;20448;-74
2022/03/19 10:46:11;;;;;;;5.47;4.87;;;;;;;-143.84;31.75;45132.84;5030611;28;20481;-74
2022/03/19 10:48:40;;;;;;;5.60;5.13;;;;;;;-143.84;32.57;45096.66;5030351;28;20552;-74
2022/03/19 10:51:10;;;;;;;12.60;5.13;;;;;;;-143.84;32.56;45106.19;5030340;28;20454;-74
2022/03/19 10:53:38;;;;;;;7.10;5.93;;;;;;;-143.84;33.35;45129.03;5030045;28;20446;-74
2022/03/19 10:56:06;;;;;;;8.40;5.37;;;;;;;-143.84;32.84;45110.00;5037625;28;20519;-74
2022/03/19 10:58:34;;;;;;;5.00;4.60;;;;;;;-143.84;33.08;45106.19;5032082;28;20509;-74
2022/03/19 11:01:02;;;;;;;5.57;4.87;;;;;;;-143.84;32.77;45111.91;5030555;28;21046;-74
2022/03/19 11:03:31;;;;;;;7.00;6.13;;;;;;;-143.84;32.87;45121.44;5030251;28;20466;-74
2022/03/19 11:06:05;;;;;;;8.97;6.30;;;;;;;-143.84;33.53;45113.81;5039249;28;20457;-74
2022/03/19 11:08:38;;;;;;;10.83;5.80;;;;;;;-143.84;34.05;45136.66;5071572;28;20433;-74
2022/03/19 11:11:10;;;;;;;6.37;5.40;;;;;;;-143.84;34.48;45132.84;5074808;28;20452;-74
2022/03/19 11:13:46;;;;;;;7.37;5.73;;;;;;;-143.84;34.59;45136.66;5074240;28;20448;-74
2022/03/19 11:16:13;;;;;;;7.13;5.17;;;;;;;-143.84;34.51;45146.19;5074297;28;20436;-74
2022/03/19 11:18:41;;;;;;;5.53;5.03;;;;;;;-143.84;34.53;45132.84;5074004;28;20484;-74
2022/03/19 11:21:10;;;;;;;13.37;7.83;;;;;;;-143.84;34.74;45102.38;5074156;28;20441;-74
2022/03/19 11:23:49;;;;;;;7.43;5.80;;;;;;;-143.84;34.22;45125.22;5073945;28;20453;-74
2022/03/19 11:26:22;;;;;;;6.80;5.47;;;;;;;-143.84;33.88;45127.13;5073528;28;20443;-74
2022/03/19 11:28:50;;;;;;;5.23;4.83;;;;;;;-143.84;34.03;45113.81;5055919;28;20523;-74
2022/03/19 11:31:25;;;;;;;6.43;5.40;;;;;;;-143.84;34.74;45125.22;5073728;28;20440;-74
2022/03/19 11:33:53;;;;;;;7.00;6.13;;;;;;;-143.84;34.68;45115.72;5074172;28;20424;-74
2022/03/19 11:36:21;;;;;;;6.83;5.67;;;;;;;-143.84;34.52;45110.00;5073708;28;20441;-74